Time;durP1;ratioP1;P1;durP2;ratioP2;P2;SDS_P1;SDS_P2;PMS_P1;PMS_P2;Temp;Humidity;BMP_temperature;BMP_pressure;BME280_temperature;BME280_humidity;BME280_pressure;Samples;Min_cycle;Max_cycle;Signal;HPM_P1;HPM_P2
2021/03/19 00:00:19;;;;;;;3.60;0.90;;;2.80;99.90;;;;;;5064980;28;20021;-80
2021/03/19 00:02:45;;;;;;;4.13;0.80;;;2.80;99.90;;;;;;5064679;28;20044;-80
2021/03/19 00:05:15;;;;;;;6.38;1.00;;;2.70;99.90;;;;;;5064629;28;20037;-80
2021/03/19 00:07:53;;;;;;;6.53;1.65;;;2.70;99.90;;;;;;5065690;28;20044;-81
2021/03/19 00:10:27;;;;;;;4.50;1.50;;;2.70;99.90;;;;;;5064435;28;20032;-81
2021/03/19 00:12:54;;;;;;;3.40;0.70;;;2.60;99.90;;;;;;5064529;28;20105;-80
2021/03/19 00:15:25;;;;;;;5.80;0.93;;;2.60;99.90;;;;;;5064342;28;20053;-80
2021/03/19 00:17:52;;;;;;;4.68;0.80;;;2.50;99.90;;;;;;5028034;28;20268;-80
2021/03/19 00:20:18;;;;;;;5.20;0.93;;;2.50;99.90;;;;;;5044450;28;20030;-80
2021/03/19 00:22:44;;;;;;;4.05;1.17;;;2.40;99.90;;;;;;5027927;28;20035;-80
2021/03/19 00:25:12;;;;;;;4.10;1.02;;;2.40;99.90;;;;;;5027662;28;20066;-80
2021/03/19 00:27:38;;;;;;;4.68;0.85;;;2.40;99.90;;;;;;5027899;28;20059;-80
2021/03/19 00:30:06;;;;;;;2.20;0.80;;;2.30;99.90;;;;;;5044260;28;20033;-80
2021/03/19 00:32:32;;;;;;;3.55;0.90;;;2.30;99.90;;;;;;5027766;28;20041;-80
2021/03/19 00:34:58;;;;;;;3.40;1.02;;;2.30;99.90;;;;;;5044147;28;20117;-80
2021/03/19 00:37:24;;;;;;;3.95;1.10;;;2.20;99.90;;;;;;5027589;28;20548;-80
2021/03/19 00:39:49;;;;;;;4.05;1.00;;;2.20;99.90;;;;;;5027817;28;20030;-80
2021/03/19 00:42:15;;;;;;;3.75;0.88;;;2.20;99.90;;;;;;5027638;28;20056;-80
2021/03/19 00:44:41;;;;;;;2.47;0.63;;;2.10;99.90;;;;;;5027648;28;20036;-80
2021/03/19 00:47:08;;;;;;;3.17;0.95;;;2.10;99.90;;;;;;5044364;28;20053;-80
2021/03/19 00:49:34;;;;;;;2.83;0.85;;;2.00;99.90;;;;;;5064110;28;20425;-80
2021/03/19 00:52:00;;;;;;;3.42;1.10;;;2.00;99.90;;;;;;5065355;28;20040;-80
2021/03/19 00:54:26;;;;;;;3.00;0.88;;;2.00;99.90;;;;;;5068167;28;20033;-80
2021/03/19 00:56:52;;;;;;;6.28;0.98;;;1.90;99.90;;;;;;5068182;28;20112;-80
2021/03/19 00:59:17;;;;;;;8.73;1.77;;;1.90;99.90;;;;;;5068097;28;20469;-79
2021/03/19 01:01:43;;;;;;;3.03;1.33;;;1.80;99.90;;;;;;5069595;28;20036;-80
2021/03/19 01:04:09;;;;;;;5.53;1.85;;;1.80;99.90;;;;;;5067833;28;20163;-80
2021/03/19 01:06:34;;;;;;;3.85;1.48;;;1.70;99.90;;;;;;5067752;28;20036;-80
2021/03/19 01:09:00;;;;;;;4.35;1.30;;;1.70;99.90;;;;;;5084650;28;20037;-80
2021/03/19 01:11:27;;;;;;;2.63;0.95;;;1.70;99.90;;;;;;5067732;28;20097;-80
2021/03/19 01:13:53;;;;;;;4.30;0.98;;;1.70;99.90;;;;;;5067527;28;20128;-80
2021/03/19 01:16:20;;;;;;;5.55;1.45;;;1.70;99.90;;;;;;5084586;28;20082;-80
2021/03/19 01:18:46;;;;;;;3.83;1.52;;;1.70;99.90;;;;;;5067615;28;20036;-80
2021/03/19 01:21:12;;;;;;;3.58;1.13;;;1.60;99.90;;;;;;5067777;28;20029;-80
2021/03/19 01:23:38;;;;;;;4.13;1.52;;;1.50;99.90;;;;;;5067684;28;20117;-80
2021/03/19 01:26:04;;;;;;;4.28;1.30;;;1.50;99.90;;;;;;5067675;28;20021;-80
2021/03/19 01:28:29;;;;;;;4.40;1.73;;;1.50;99.90;;;;;;5067517;28;20085;-80
2021/03/19 01:30:55;;;;;;;5.45;1.85;;;1.50;99.90;;;;;;5067478;28;20131;-80
2021/03/19 01:33:21;;;;;;;7.18;2.40;;;1.40;99.90;;;;;;5067268;28;20040;-80
2021/03/19 01:35:47;;;;;;;4.60;2.50;;;1.40;99.90;;;;;;5067208;28;20033;-80
2021/03/19 01:38:13;;;;;;;6.28;3.00;;;1.50;99.90;;;;;;5067261;28;20048;-80
2021/03/19 01:40:41;;;;;;;4.72;1.90;;;1.40;99.90;;;;;;5067563;28;20039;-80
2021/03/19 01:43:13;;;;;;;6.55;2.05;;;1.40;99.90;;;;;;5083742;28;20044;-80
2021/03/19 01:46:16;;;;;;;3.38;1.63;;;1.40;99.90;;;;;;5067462;28;20056;-80
2021/03/19 01:49:20;;;;;;;4.90;1.42;;;1.30;99.90;;;;;;5067083;28;20029;-80
2021/03/19 01:52:23;;;;;;;7.68;3.30;;;1.30;99.90;;;;;;5067018;28;20025;-80
2021/03/19 01:55:27;;;;;;;3.65;1.50;;;1.30;99.90;;;;;;5067049;28;20036;-80
2021/03/19 01:58:30;;;;;;;6.45;2.45;;;1.20;99.90;;;;;;5067223;28;20029;-80
2021/03/19 02:01:33;;;;;;;7.55;3.22;;;1.20;99.90;;;;;;5066220;28;20025;-80
2021/03/19 02:04:36;;;;;;;8.52;3.53;;;1.20;99.90;;;;;;5066764;28;20040;-80
2021/03/19 02:07:40;;;;;;;8.45;3.08;;;1.20;99.90;;;;;;5066572;28;20049;-80
2021/03/19 02:10:43;;;;;;;8.48;3.47;;;1.20;99.90;;;;;;5066744;28;20072;-80
2021/03/19 02:13:46;;;;;;;4.95;2.28;;;1.20;99.90;;;;;;5067804;28;20404;-79
2021/03/19 02:16:50;;;;;;;6.47;3.63;;;1.10;99.90;;;;;;5066715;28;20037;-79
2021/03/19 02:19:53;;;;;;;7.43;4.05;;;1.10;99.90;;;;;;5067796;28;20066;-79
2021/03/19 02:22:56;;;;;;;7.78;3.47;;;1.00;99.90;;;;;;5083358;28;20443;-80
2021/03/19 02:26:00;;;;;;;5.65;2.67;;;1.00;99.90;;;;;;5066374;28;20056;-80
2021/03/19 02:29:03;;;;;;;4.97;1.60;;;1.00;99.90;;;;;;5083110;28;20341;-80
2021/03/19 02:32:05;;;;;;;8.65;2.75;;;1.00;99.90;;;;;;5066436;28;20044;-80
2021/03/19 02:35:05;;;;;;;7.32;2.95;;;1.00;99.90;;;;;;5066130;28;20045;-80
2021/03/19 02:37:36;;;;;;;4.15;1.98;;;0.90;99.90;;;;;;5066332;28;20439;-80
2021/03/19 02:40:06;;;;;;;5.40;2.33;;;0.90;99.90;;;;;;5049487;28;20178;-80
2021/03/19 02:42:32;;;;;;;5.22;2.42;;;0.90;99.90;;;;;;5066171;28;20029;-80
2021/03/19 02:44:59;;;;;;;8.65;2.63;;;0.90;99.90;;;;;;5065872;28;20108;-79
2021/03/19 02:47:27;;;;;;;6.78;2.42;;;0.90;99.90;;;;;;5066164;28;20040;-80
2021/03/19 02:49:53;;;;;;;5.05;2.55;;;0.90;99.90;;;;;;5065891;28;20051;-80
2021/03/19 02:52:22;;;;;;;5.32;2.00;;;0.80;99.90;;;;;;5049370;28;20029;-79
2021/03/19 02:54:48;;;;;;;6.43;2.70;;;0.80;99.90;;;;;;5065823;28;20043;-79
2021/03/19 02:57:14;;;;;;;4.32;1.98;;;0.70;99.90;;;;;;5049283;28;20069;-80
2021/03/19 02:59:39;;;;;;;6.72;2.40;;;0.70;99.90;;;;;;5065716;28;20040;-79
2021/03/19 03:02:05;;;;;;;6.75;2.60;;;0.70;99.90;;;;;;5067191;28;20033;-79
2021/03/19 03:04:31;;;;;;;4.75;2.45;;;0.70;99.90;;;;;;5065590;28;20033;-79
2021/03/19 03:06:58;;;;;;;8.15;3.03;;;0.70;99.90;;;;;;5065456;28;20041;-79
2021/03/19 03:09:27;;;;;;;10.80;3.58;;;0.70;99.90;;;;;;5067025;28;20025;-79
2021/03/19 03:11:53;;;;;;;4.40;2.20;;;0.70;99.90;;;;;;5064589;28;20400;-79
2021/03/19 03:14:24;;;;;;;7.28;2.80;;;0.70;99.90;;;;;;5065350;28;20041;-79
2021/03/19 03:16:50;;;;;;;6.63;3.38;;;0.60;99.90;;;;;;5065572;28;20029;-79
2021/03/19 03:19:21;;;;;;;9.02;3.47;;;0.60;99.90;;;;;;5082257;28;20037;-79
2021/03/19 03:21:46;;;;;;;5.03;2.30;;;0.60;99.90;;;;;;5065298;28;20029;-79
2021/03/19 03:24:14;;;;;;;3.70;1.58;;;0.50;99.90;;;;;;5065231;28;20033;-79
2021/03/19 03:26:42;;;;;;;7.03;2.95;;;0.60;99.90;;;;;;5065252;28;20029;-79
2021/03/19 03:29:10;;;;;;;6.07;3.17;;;0.50;99.90;;;;;;5065100;28;20037;-79
2021/03/19 03:31:36;;;;;;;7.22;3.33;;;0.50;99.90;;;;;;5082020;28;20028;-79
2021/03/19 03:34:01;;;;;;;7.82;2.55;;;0.50;99.90;;;;;;5065002;28;20044;-79
2021/03/19 03:36:29;;;;;;;4.95;1.80;;;0.40;99.90;;;;;;5064926;28;20122;-79
2021/03/19 03:38:55;;;;;;;3.47;1.80;;;0.40;99.90;;;;;;5065130;28;20044;-79
2021/03/19 03:41:24;;;;;;;5.60;2.72;;;0.40;99.90;;;;;;5064894;28;20026;-79
2021/03/19 03:43:50;;;;;;;6.18;2.45;;;0.40;99.90;;;;;;5064898;28;20036;-80
2021/03/19 03:46:19;;;;;;;6.43;2.65;;;0.40;99.90;;;;;;5064744;28;20041;-79
2021/03/19 03:48:45;;;;;;;6.87;3.13;;;0.40;99.90;;;;;;5081909;28;20163;-79
2021/03/19 03:51:12;;;;;;;4.53;1.52;;;0.40;99.90;;;;;;5064721;28;20291;-79
2021/03/19 03:53:38;;;;;;;7.15;2.50;;;0.40;99.90;;;;;;5064568;28;20041;-79
2021/03/19 03:56:05;;;;;;;6.13;2.67;;;0.30;99.90;;;;;;5064779;28;20457;-79
2021/03/19 03:58:32;;;;;;;7.07;2.78;;;0.30;99.90;;;;;;5066103;28;20048;-79
2021/03/19 04:00:57;;;;;;;7.18;2.80;;;0.20;99.90;;;;;;5064573;28;20028;-79
2021/03/19 04:03:23;;;;;;;7.90;3.72;;;0.20;99.90;;;;;;5064528;28;20033;-79
2021/03/19 04:06:09;;;;;;;7.03;2.75;;;0.30;99.90;;;;;;5064530;28;20060;-79
2021/03/19 04:08:35;;;;;;;8.50;2.97;;;0.10;99.90;;;;;;4971472;28;20117;-79
2021/03/19 04:11:04;;;;;;;8.73;2.72;;;0.10;99.90;;;;;;4971750;28;20069;-79
2021/03/19 04:13:31;;;;;;;7.38;2.50;;;0.20;99.90;;;;;;5004181;28;20046;-80
2021/03/19 04:15:58;;;;;;;6.90;2.88;;;0.20;99.90;;;;;;4988482;28;20088;-79
2021/03/19 04:18:25;;;;;;;8.13;2.95;;;0.10;99.90;;;;;;5004083;28;20042;-79
2021/03/19 04:20:54;;;;;;;8.70;3.22;;;0.10;99.90;;;;;;5003812;28;20131;-79
2021/03/19 04:23:21;;;;;;;5.20;2.00;;;0.10;99.90;;;;;;5003511;28;20169;-79
2021/03/19 04:25:46;;;;;;;6.30;2.30;;;0.10;99.90;;;;;;5003700;28;20038;-79
2021/03/19 04:28:16;;;;;;;9.27;3.60;;;0.10;99.90;;;;;;5003923;28;20030;-79
2021/03/19 04:30:44;;;;;;;6.47;3.00;;;0.10;99.90;;;;;;5003776;28;20031;-79
2021/03/19 04:33:17;;;;;;;7.68;2.85;;;0.10;99.90;;;;;;5003428;28;20146;-79
2021/03/19 04:35:54;;;;;;;7.32;2.97;;;0.10;99.90;;;;;;4987512;28;20056;-79
2021/03/19 04:38:20;;;;;;;9.93;3.35;;;0.00;99.90;;;;;;4987357;28;20046;-79
2021/03/19 04:40:46;;;;;;;4.70;2.60;;;0.00;99.90;;;;;;5003953;28;20119;-79
2021/03/19 04:43:14;;;;;;;3.50;1.63;;;0.00;99.90;;;;;;4987258;28;20046;-79
2021/03/19 04:45:42;;;;;;;6.88;3.47;;;0.00;99.90;;;;;;5027270;28;20037;-79
2021/03/19 04:48:09;;;;;;;8.50;3.28;;;0.00;99.90;;;;;;5064038;28;20057;-79
2021/03/19 04:50:35;;;;;;;7.63;3.42;;;0.00;99.90;;;;;;5064059;28;20407;-79
2021/03/19 04:53:01;;;;;;;6.57;2.95;;;-0.10;99.90;;;;;;5064089;28;20036;-80
2021/03/19 04:55:27;;;;;;;7.03;2.95;;;-0.10;99.90;;;;;;5064112;28;20167;-79
2021/03/19 04:57:52;;;;;;;7.97;2.95;;;-0.10;99.90;;;;;;5047484;28;20033;-80
2021/03/19 05:00:21;;;;;;;9.65;3.28;;;-0.10;99.90;;;;;;5064125;28;20074;-79
2021/03/19 05:02:49;;;;;;;8.82;3.53;;;-0.10;99.90;;;;;;5063712;28;20029;-79
2021/03/19 05:05:19;;;;;;;7.43;3.03;;;-0.10;99.90;;;;;;5063962;28;20037;-79
2021/03/19 05:07:44;;;;;;;5.72;2.67;;;-0.10;99.90;;;;;;5063746;28;20048;-79
2021/03/19 05:10:12;;;;;;;7.20;3.25;;;-0.10;99.90;;;;;;5064119;28;20037;-79
2021/03/19 05:12:37;;;;;;;7.38;2.92;;;-0.10;99.90;;;;;;5063930;28;20039;-79
2021/03/19 05:15:05;;;;;;;7.32;3.17;;;-0.10;99.90;;;;;;5064006;28;20061;-79
2021/03/19 05:17:31;;;;;;;6.05;2.88;;;-0.10;99.90;;;;;;5063665;28;20036;-79
2021/03/19 05:20:00;;;;;;;7.07;2.22;;;-0.10;99.90;;;;;;5063944;28;20033;-79
2021/03/19 05:22:26;;;;;;;5.88;2.30;;;-0.10;99.90;;;;;;5080738;28;20033;-79
2021/03/19 05:24:52;;;;;;;5.07;2.05;;;-0.20;99.90;;;;;;5063803;28;20043;-79
2021/03/19 05:27:18;;;;;;;7.28;2.08;;;-0.20;99.90;;;;;;5063807;28;20087;-79
2021/03/19 05:29:44;;;;;;;6.43;1.90;;;-0.20;99.90;;;;;;5063861;28;20033;-79
2021/03/19 05:32:10;;;;;;;9.88;1.92;;;-0.30;99.90;;;;;;5063585;28;20098;-80
2021/03/19 05:34:36;;;;;;;6.43;2.55;;;-0.30;99.90;;;;;;5063712;28;20507;-79
2021/03/19 05:37:02;;;;;;;6.88;2.13;;;-0.30;99.90;;;;;;5066972;28;20037;-80
2021/03/19 05:39:28;;;;;;;6.15;2.15;;;-0.30;99.90;;;;;;5066658;28;20044;-80
2021/03/19 05:41:54;;;;;;;3.17;0.93;;;-0.30;99.90;;;;;;5067018;28;20047;-80
2021/03/19 05:44:23;;;;;;;5.57;2.05;;;-0.30;99.90;;;;;;5067268;28;20477;-80
2021/03/19 05:47:09;;;;;;;7.88;1.95;;;-0.30;99.90;;;;;;5084016;28;20462;-80
2021/03/19 05:49:34;;;;;;;5.15;1.67;;;-0.40;99.90;;;;;;5067375;28;20131;-80
2021/03/19 05:52:09;;;;;;;4.97;1.63;;;-0.30;99.90;;;;;;5066869;28;20455;-80
2021/03/19 05:54:38;;;;;;;6.82;2.67;;;-0.30;99.90;;;;;;5063392;28;20037;-80
2021/03/19 05:57:03;;;;;;;5.68;2.47;;;-0.30;99.90;;;;;;5083018;28;20109;-80
2021/03/19 05:59:30;;;;;;;6.32;2.28;;;-0.30;99.90;;;;;;5082942;28;20028;-79
2021/03/19 06:01:56;;;;;;;7.47;2.55;;;-0.30;99.90;;;;;;5082414;28;20021;-79
2021/03/19 06:04:25;;;;;;;9.27;3.53;;;-0.30;99.90;;;;;;5081853;28;20036;-80
2021/03/19 06:06:56;;;;;;;7.53;2.53;;;-0.20;99.90;;;;;;5065207;28;20482;-80
2021/03/19 06:09:32;;;;;;;7.07;2.13;;;-0.30;99.90;;;;;;5082500;28;20063;-80
2021/03/19 06:12:06;;;;;;;4.20;1.50;;;-0.30;99.90;;;;;;5065769;28;20096;-80
2021/03/19 06:14:47;;;;;;;5.53;2.30;;;-0.30;99.90;;;;;;5066429;28;20119;-80
2021/03/19 06:17:42;;;;;;;6.65;2.65;;;-0.20;99.90;;;;;;5065427;28;20036;-80
2021/03/19 06:20:12;;;;;;;4.28;1.38;;;-0.20;99.90;;;;;;5048752;28;20101;-80
2021/03/19 06:22:47;;;;;;;4.38;1.45;;;-0.30;99.90;;;;;;5048662;28;20028;-79
2021/03/19 06:25:32;;;;;;;5.90;2.08;;;-0.30;99.90;;;;;;5048829;28;20045;-80
2021/03/19 06:28:04;;;;;;;7.40;2.53;;;-0.20;99.90;;;;;;5065920;28;20035;-80
2021/03/19 06:30:33;;;;;;;6.10;2.10;;;-0.10;99.90;;;;;;5065672;28;20033;-80
2021/03/19 06:33:25;;;;;;;10.25;2.90;;;-0.10;99.90;;;;;;5048265;28;20049;-80
2021/03/19 06:36:19;;;;;;;6.40;2.42;;;-0.10;99.90;;;;;;5048417;28;20025;-79
2021/03/19 06:39:09;;;;;;;11.13;3.90;;;-0.10;99.90;;;;;;5029106;28;20037;-80
2021/03/19 06:41:37;;;;;;;7.90;2.97;;;0.00;99.90;;;;;;5032490;28;20037;-80
2021/03/19 06:44:19;;;;;;;5.63;2.15;;;0.10;99.90;;;;;;5065431;28;20036;-80
2021/03/19 06:46:52;;;;;;;5.35;2.42;;;0.10;99.90;;;;;;5065327;28;20044;-80
2021/03/19 06:49:20;;;;;;;12.90;2.95;;;0.10;99.90;;;;;;5048792;28;20028;-80
2021/03/19 06:51:55;;;;;;;9.07;3.40;;;0.20;99.90;;;;;;5066689;28;20060;-80
2021/03/19 06:54:44;;;;;;;5.32;2.72;;;0.40;99.90;;;;;;5066831;28;20029;-80
2021/03/19 06:57:14;;;;;;;10.60;3.03;;;0.40;99.90;;;;;;5066559;28;20342;-80
2021/03/19 06:59:46;;;;;;;11.32;3.67;;;0.50;99.90;;;;;;5048581;28;20037;-80
2021/03/19 07:02:38;;;;;;;9.00;2.85;;;0.60;99.90;;;;;;5065347;28;20029;-80
2021/03/19 07:08:32;;;;;;;6.50;2.30;;;0.70;99.90;;;;;;5027412;28;20053;-80
2021/03/19 07:11:06;;;;;;;5.97;2.95;;;0.70;99.90;;;;;;5011115;28;20033;-80
2021/03/19 07:13:44;;;;;;;7.55;3.55;;;0.90;99.90;;;;;;5043912;28;20180;-80
2021/03/19 07:16:15;;;;;;;7.43;2.67;;;1.00;99.90;;;;;;5007817;28;20036;-80
2021/03/19 07:18:51;;;;;;;3.20;1.25;;;1.10;99.90;;;;;;5024213;28;20049;-80
2021/03/19 07:21:53;;;;;;;5.82;2.30;;;1.10;99.90;;;;;;5007584;28;20030;-80
2021/03/19 07:24:28;;;;;;;5.32;2.08;;;1.10;99.90;;;;;;5023812;28;20026;-80
2021/03/19 07:27:02;;;;;;;7.47;2.15;;;1.30;99.90;;;;;;5023994;28;20328;-80
2021/03/19 07:29:31;;;;;;;7.68;2.63;;;1.40;99.90;;;;;;5007533;28;20037;-80
2021/03/19 07:32:20;;;;;;;6.15;2.10;;;1.40;99.90;;;;;;5007226;28;20046;-80
2021/03/19 07:35:10;;;;;;;5.35;2.03;;;1.50;99.90;;;;;;5007224;28;20479;-81
2021/03/19 07:37:55;;;;;;;5.85;1.77;;;1.50;99.90;;;;;;5007544;28;20041;-81
2021/03/19 07:40:45;;;;;;;5.32;2.10;;;1.70;99.90;;;;;;5023744;28;20034;-81
2021/03/19 07:43:32;;;;;;;6.22;1.67;;;1.70;99.90;;;;;;5023634;28;20061;-81
2021/03/19 07:46:14;;;;;;;4.65;1.17;;;1.90;99.90;;;;;;5033145;28;20034;-81
2021/03/19 07:49:06;;;;;;;7.43;2.00;;;2.10;99.90;;;;;;5044505;28;20053;-81
2021/03/19 07:51:56;;;;;;;4.07;1.40;;;2.10;99.90;;;;;;5041554;28;20044;-81
2021/03/19 07:55:09;;;;;;;6.17;1.43;;;2.20;99.90;;;;;;5064367;28;20037;-81
2021/03/19 07:57:44;;;;;;;5.72;2.22;;;2.30;99.90;;;;;;4978207;28;20057;-81
2021/03/19 08:00:27;;;;;;;5.78;2.10;;;2.40;99.90;;;;;;5064290;28;20037;-81
2021/03/19 08:03:08;;;;;;;5.85;1.73;;;2.60;99.90;;;;;;5064118;28;20096;-81
2021/03/19 08:05:54;;;;;;;4.90;1.50;;;2.60;99.90;;;;;;5063931;28;20474;-81
2021/03/19 08:08:32;;;;;;;4.50;1.60;;;2.80;99.90;;;;;;4987051;28;20499;-81
2021/03/19 08:11:20;;;;;;;4.68;1.48;;;2.90;99.90;;;;;;5003504;28;20066;-81
2021/03/19 08:14:13;;;;;;;3.80;1.13;;;3.00;99.90;;;;;;4987099;28;20529;-81
2021/03/19 08:17:03;;;;;;;4.18;1.55;;;3.10;99.90;;;;;;4987171;28;20026;-81
2021/03/19 08:19:58;;;;;;;3.17;1.20;;;3.20;99.90;;;;;;4941608;28;20054;-80
2021/03/19 08:22:40;;;;;;;5.55;1.52;;;3.40;99.90;;;;;;4999251;28;20030;-81
2021/03/19 08:25:18;;;;;;;4.65;1.02;;;3.50;99.90;;;;;;4990807;28;20053;-81
2021/03/19 08:27:51;;;;;;;4.60;1.73;;;3.60;99.90;;;;;;4977873;28;20054;-82
2021/03/19 08:30:41;;;;;;;4.88;1.63;;;3.70;99.90;;;;;;4990107;28;20069;-81
2021/03/19 08:33:43;;;;;;;2.88;0.80;;;3.80;99.90;;;;;;4980708;28;20437;-81
2021/03/19 08:36:22;;;;;;;3.72;1.30;;;3.80;99.90;;;;;;4982568;28;20476;-81
2021/03/19 08:38:53;;;;;;;4.57;1.10;;;4.00;99.90;;;;;;5004677;28;20208;-81
2021/03/19 08:41:25;;;;;;;4.22;1.00;;;4.20;99.90;;;;;;4977127;28;20269;-81
2021/03/19 08:43:55;;;;;;;1.80;0.60;;;4.30;99.90;;;;;;4990453;28;20039;-82
2021/03/19 08:46:37;;;;;;;3.40;0.55;;;4.40;99.90;;;;;;5054482;28;20473;-81
2021/03/19 08:49:31;;;;;;;1.70;0.45;;;4.50;99.90;;;;;;5076196;28;20037;-81
2021/03/19 08:51:57;;;;;;;3.72;1.05;;;4.50;99.90;;;;;;5059893;28;20048;-82
2021/03/19 08:54:32;;;;;;;2.40;0.60;;;4.60;99.90;;;;;;5068257;28;20033;-81
2021/03/19 08:57:04;;;;;;;2.72;0.60;;;4.80;99.90;;;;;;5065698;28;20032;-81
2021/03/19 08:59:36;;;;;;;2.03;0.40;;;4.80;99.90;;;;;;5062275;28;20029;-81
2021/03/19 09:02:17;;;;;;;2.28;0.73;;;5.00;99.90;;;;;;5078961;28;20035;-81
2021/03/19 09:04:58;;;;;;;3.22;0.60;;;5.00;99.90;;;;;;5076777;28;20046;-81
2021/03/19 09:07:33;;;;;;;2.65;0.90;;;5.10;99.90;;;;;;5074257;28;20056;-82
2021/03/19 09:10:23;;;;;;;1.23;0.40;;;5.30;99.90;;;;;;5068855;28;20036;-81
2021/03/19 09:12:54;;;;;;;1.20;0.47;;;5.40;99.90;;;;;;5019401;28;20048;-81
2021/03/19 09:15:20;;;;;;;1.58;0.40;;;5.50;99.90;;;;;;5062048;28;20025;-81
2021/03/19 09:17:50;;;;;;;1.40;0.40;;;5.40;99.90;;;;;;5078932;28;20162;-81
2021/03/19 09:20:27;;;;;;;1.38;0.30;;;5.40;99.90;;;;;;5063376;28;20049;-82
2021/03/19 09:23:09;;;;;;;1.98;0.30;;;5.70;99.90;;;;;;5068437;28;20545;-82
2021/03/19 09:25:38;;;;;;;3.50;0.52;;;5.80;99.90;;;;;;5060089;28;20062;-80
2021/03/19 09:28:21;;;;;;;1.73;0.43;;;5.70;99.90;;;;;;5072749;28;20081;-80
2021/03/19 09:30:55;;;;;;;1.20;0.40;;;5.60;99.90;;;;;;5083323;28;20134;-83
2021/03/19 09:33:42;;;;;;;1.55;0.30;;;5.70;99.90;;;;;;5081099;28;20048;-81
2021/03/19 09:36:45;;;;;;;2.17;0.47;;;5.90;99.90;;;;;;5062237;28;20507;-81
2021/03/19 09:39:55;;;;;;;1.35;0.40;;;6.10;99.90;;;;;;5094237;28;20079;-82
2021/03/19 09:42:21;;;;;;;2.00;0.50;;;6.10;99.90;;;;;;5082038;28;20033;-82
2021/03/19 09:45:13;;;;;;;2.05;0.73;;;6.10;99.90;;;;;;5065921;28;20043;-81
2021/03/19 09:47:49;;;;;;;1.50;0.43;;;6.20;99.90;;;;;;5072108;28;20124;-81
2021/03/19 09:50:28;;;;;;;2.58;0.70;;;6.30;99.90;;;;;;5071902;28;20104;-81
2021/03/19 09:52:57;;;;;;;2.35;0.70;;;6.30;99.90;;;;;;5081307;28;20049;-81
2021/03/19 09:55:35;;;;;;;3.35;0.60;;;6.50;99.90;;;;;;5079493;28;20037;-81
2021/03/19 09:58:06;;;;;;;2.40;0.60;;;6.50;99.90;;;;;;5060820;28;20130;-81
2021/03/19 10:00:31;;;;;;;2.10;0.50;;;6.50;99.90;;;;;;5076857;28;20045;-81
2021/03/19 10:03:12;;;;;;;1.20;0.40;;;6.70;99.90;;;;;;5081066;28;20094;-81
2021/03/19 10:05:57;;;;;;;;;;;6.70;99.90;;;;;;5063574;28;20065;-81
2021/03/19 10:08:30;;;;;;;1.75;0.50;;;6.70;99.90;;;;;;5021229;28;20405;-81
2021/03/19 10:11:09;;;;;;;1.60;0.60;;;7.10;99.90;;;;;;5010687;28;20046;-81
2021/03/19 10:13:35;;;;;;;1.55;0.57;;;6.90;99.90;;;;;;5012139;28;20049;-81
2021/03/19 10:16:02;;;;;;;2.20;0.50;;;7.00;99.90;;;;;;5028450;28;20029;-81
2021/03/19 10:18:38;;;;;;;1.25;0.40;;;7.20;99.90;;;;;;4996709;28;20048;-82
2021/03/19 10:21:11;;;;;;;0.77;0.30;;;7.40;99.90;;;;;;4988920;28;20042;-81
2021/03/19 10:23:53;;;;;;;2.17;0.47;;;7.50;99.90;;;;;;5031966;28;20421;-81
2021/03/19 10:26:22;;;;;;;1.40;0.50;;;7.30;99.90;;;;;;4997182;28;20121;-81
2021/03/19 10:29:02;;;;;;;2.90;0.50;;;7.30;99.90;;;;;;5032180;28;20193;-81
2021/03/19 10:31:28;;;;;;;1.70;0.50;;;7.40;99.90;;;;;;5016453;28;20105;-82
2021/03/19 10:33:59;;;;;;;1.85;0.40;;;7.50;99.90;;;;;;5031708;28;20098;-82
2021/03/19 10:37:00;;;;;;;1.65;0.50;;;7.20;99.90;;;;;;5011788;28;20097;-81
2021/03/19 10:39:31;;;;;;;1.25;0.40;;;7.40;99.90;;;;;;5006894;28;20049;-82
2021/03/19 10:42:21;;;;;;;2.67;0.40;;;7.50;99.90;;;;;;4985953;28;20065;-82
2021/03/19 10:45:04;;;;;;;1.05;0.38;;;7.60;99.90;;;;;;5003819;28;20047;-82
2021/03/19 10:47:35;;;;;;;1.58;0.68;;;7.90;99.90;;;;;;5069653;28;20492;-81
2021/03/19 10:50:08;;;;;;;2.30;0.50;;;7.80;99.90;;;;;;5075841;28;20067;-81
2021/03/19 10:52:48;;;;;;;1.50;0.40;;;7.20;99.90;;;;;;5078250;28;20100;-81
2021/03/19 10:55:25;;;;;;;1.58;0.40;;;7.60;99.90;;;;;;5079642;28;20556;-81
2021/03/19 10:57:56;;;;;;;1.13;0.40;;;7.80;99.90;;;;;;5072352;28;20041;-81
2021/03/19 11:00:31;;;;;;;;;;;7.90;99.90;;;;;;5078117;28;20044;-82
2021/03/19 11:03:03;;;;;;;1.92;0.50;;;7.80;99.90;;;;;;5090760;28;20328;-81
2021/03/19 11:05:30;;;;;;;2.83;0.50;;;7.80;99.90;;;;;;5092864;28;20039;-81
2021/03/19 11:07:56;;;;;;;2.03;0.50;;;7.80;99.90;;;;;;5071889;28;20482;-81
2021/03/19 11:10:26;;;;;;;1.77;0.45;;;8.00;99.90;;;;;;5072028;28;20037;-82
2021/03/19 11:13:07;;;;;;;;;;;8.10;99.90;;;;;;5056560;28;20024;-81
2021/03/19 11:15:33;;;;;;;1.30;0.40;;;8.40;99.90;;;;;;5073614;28;19916;-82
2021/03/19 11:18:22;;;;;;;1.50;0.50;;;8.50;99.90;;;;;;5080113;28;20036;-81
2021/03/19 11:20:55;;;;;;;1.67;0.50;;;8.50;99.90;;;;;;5074434;28;20115;-82
2021/03/19 11:23:41;;;;;;;9.02;2.05;;;8.40;99.90;;;;;;5070774;28;20037;-82
2021/03/19 11:26:20;;;;;;;4.22;0.90;;;8.10;99.90;;;;;;5070101;28;20032;-82
2021/03/19 11:28:47;;;;;;;3.97;0.85;;;7.70;99.90;;;;;;5082934;28;20044;-82
2021/03/19 11:31:16;;;;;;;2.33;1.00;;;8.10;99.90;;;;;;5080879;28;20501;-82
2021/03/19 11:34:04;;;;;;;3.17;1.17;;;8.20;99.90;;;;;;5074569;28;20071;-81
2021/03/19 11:36:49;;;;;;;3.80;0.90;;;7.80;99.90;;;;;;5061488;28;20088;-81
2021/03/19 11:39:42;;;;;;;3.30;0.60;;;8.40;99.90;;;;;;5083343;28;20047;-81
2021/03/19 11:42:12;;;;;;;6.90;1.55;;;8.60;99.90;;;;;;5053050;28;20028;-82
2021/03/19 11:44:38;;;;;;;2.90;1.00;;;8.30;99.90;;;;;;5056103;28;20033;-82
2021/03/19 11:47:26;;;;;;;2.08;0.52;;;8.40;99.90;;;;;;5073248;28;20044;-84
2021/03/19 11:50:13;;;;;;;1.75;0.77;;;8.70;99.90;;;;;;5082596;28;20491;-82
2021/03/19 11:52:39;;;;;;;2.08;0.50;;;9.00;99.90;;;;;;5071845;28;20036;-82
2021/03/19 11:55:05;;;;;;;1.52;0.50;;;8.70;99.90;;;;;;5069241;28;20036;-81
2021/03/19 11:57:31;;;;;;;2.42;0.60;;;8.50;99.90;;;;;;5079021;28;20028;-81
2021/03/19 11:59:57;;;;;;;2.92;0.63;;;8.70;99.90;;;;;;5087993;28;20093;-82
2021/03/19 12:02:30;;;;;;;3.35;0.60;;;8.70;99.90;;;;;;5063320;28;20037;-82
2021/03/19 12:04:56;;;;;;;3.88;0.70;;;8.70;99.90;;;;;;5080858;28;20023;-81
2021/03/19 12:07:22;;;;;;;1.20;0.40;;;8.70;99.90;;;;;;5076613;22;20131;-82
2021/03/19 12:09:50;;;;;;;1.10;0.40;;;8.80;99.90;;;;;;5057003;28;20056;-82
2021/03/19 12:12:19;;;;;;;2.00;0.50;;;8.80;99.90;;;;;;5063030;28;20038;-81
2021/03/19 12:14:45;;;;;;;1.42;0.40;;;9.20;99.90;;;;;;5052505;28;20041;-82
2021/03/19 12:17:13;;;;;;;2.25;0.50;;;9.20;99.90;;;;;;5064033;28;20415;-82
2021/03/19 12:19:39;;;;;;;1.10;0.30;;;9.30;99.90;;;;;;5044487;28;20044;-81
2021/03/19 12:22:05;;;;;;;2.55;0.60;;;8.70;99.90;;;;;;5043815;28;20052;-82
2021/03/19 12:24:33;;;;;;;1.48;0.35;;;8.80;99.90;;;;;;5061027;28;20037;-81
2021/03/19 12:26:59;;;;;;;1.02;0.32;;;9.10;99.90;;;;;;5044256;28;20028;-81
2021/03/19 12:29:25;;;;;;;2.03;0.20;;;9.50;99.90;;;;;;5034247;28;20036;-82
2021/03/19 12:31:50;;;;;;;1.58;0.30;;;9.50;99.90;;;;;;5057802;28;20064;-81
2021/03/19 12:34:17;;;;;;;1.98;0.35;;;9.60;99.90;;;;;;5012989;28;20108;-81
2021/03/19 12:36:43;;;;;;;2.28;0.30;;;9.30;99.90;;;;;;5058837;28;20060;-82
2021/03/19 12:39:08;;;;;;;0.80;0.20;;;9.50;99.90;;;;;;5046351;28;20091;-82
2021/03/19 12:41:34;;;;;;;1.10;0.20;;;9.50;99.90;;;;;;5036091;28;20033;-82
2021/03/19 12:44:00;;;;;;;1.00;0.20;;;9.30;99.90;;;;;;5041279;28;20126;-83
2021/03/19 12:46:25;;;;;;;3.05;0.30;;;9.10;99.90;;;;;;5043164;28;20087;-82
2021/03/19 12:48:51;;;;;;;1.90;0.20;;;8.90;99.90;;;;;;5031853;28;20029;-82
2021/03/19 12:51:16;;;;;;;3.25;0.20;;;9.30;99.90;;;;;;5049722;28;20029;-82
2021/03/19 12:53:42;;;;;;;0.60;0.20;;;8.80;99.90;;;;;;5041644;28;20098;-83
2021/03/19 12:56:09;;;;;;;0.75;0.17;;;9.10;99.90;;;;;;5051342;28;20072;-82
2021/03/19 12:58:35;;;;;;;0.60;0.10;;;9.40;99.90;;;;;;5063633;28;20033;-82
2021/03/19 13:01:00;;;;;;;0.63;0.20;;;9.60;99.90;;;;;;5047211;28;20032;-83
2021/03/19 13:03:26;;;;;;;0.30;0.10;;;9.60;99.90;;;;;;5028878;28;20126;-82
2021/03/19 13:09:40;;;;;;;1.58;0.20;;;9.80;99.90;;;;;;4994970;28;20053;-85
2021/03/19 13:12:06;;;;;;;1.00;0.15;;;9.60;99.90;;;;;;4979089;28;20050;-83
2021/03/19 13:14:33;;;;;;;0.75;0.20;;;9.80;99.90;;;;;;4973646;28;20053;-82
2021/03/19 13:17:00;;;;;;;0.85;0.20;;;9.60;99.90;;;;;;4988966;28;20035;-83
2021/03/19 13:19:26;;;;;;;1.13;0.20;;;9.50;99.90;;;;;;4985975;28;20437;-81
2021/03/19 13:21:53;;;;;;;1.15;0.20;;;9.50;99.90;;;;;;4986435;28;20049;-81
2021/03/19 13:24:20;;;;;;;0.68;0.20;;;9.40;99.90;;;;;;4975219;28;20029;-81
2021/03/19 13:26:46;;;;;;;0.80;0.20;;;9.30;99.90;;;;;;4972991;28;20043;-84
2021/03/19 13:29:11;;;;;;;0.57;0.20;;;9.50;99.90;;;;;;5001569;28;20042;-82
2021/03/19 13:31:39;;;;;;;0.50;0.17;;;9.80;99.90;;;;;;4969360;28;20038;-82
2021/03/19 13:34:05;;;;;;;1.17;0.10;;;10.00;99.90;;;;;;4979739;28;20059;-83
2021/03/19 13:36:31;;;;;;;0.55;0.10;;;10.30;99.90;;;;;;4974064;28;20105;-83